createdAt,value
2023-03-29T00:01:00.936Z,79.16
2023-03-29T00:03:31.375Z,79.48
2023-03-29T00:06:03.301Z,79.13
2023-03-29T00:08:34.135Z,79.38
2023-03-29T00:11:06.560Z,79.19
2023-03-29T00:13:36.696Z,79.28
2023-03-29T00:16:06.613Z,79.37
2023-03-29T00:18:36.374Z,79.31
2023-03-29T00:21:06.259Z,79.12
2023-03-29T00:23:36.090Z,79.14
2023-03-29T00:26:09.464Z,79.01
2023-03-29T00:28:39.137Z,79.19
2023-03-29T00:31:12.018Z,78.97
2023-03-29T00:33:42.456Z,79.04
2023-03-29T00:36:13.596Z,78.97
2023-03-29T00:38:43.530Z,79.03
2023-03-29T00:41:15.866Z,78.86
2023-03-29T00:44:04.057Z,79.04
2023-03-29T00:46:35.221Z,78.76
2023-03-29T00:49:08.080Z,78.78
2023-03-29T00:51:39.853Z,78.79
2023-03-29T00:54:15.062Z,78.83
2023-03-29T00:56:51.210Z,78.74
2023-03-29T00:59:23.593Z,78.59
2023-03-29T01:01:55.186Z,78.36
2023-03-29T01:04:31.887Z,78.52
2023-03-29T01:07:05.739Z,78.38
2023-03-29T01:09:39.043Z,78.14
2023-03-29T01:12:17.260Z,78.22
2023-03-29T01:14:50.733Z,78.23
2023-03-29T01:17:22.002Z,78.35
2023-03-29T01:20:10.854Z,78.34
2023-03-29T01:22:51.519Z,78.50
2023-03-29T01:25:26.349Z,78.34
2023-03-29T01:28:02.625Z,78.69
2023-03-29T01:30:34.354Z,78.59
2023-03-29T01:33:07.654Z,78.66
2023-03-29T01:35:41.186Z,78.86
2023-03-29T01:38:13.516Z,78.75
2023-03-29T01:40:43.268Z,78.55
2023-03-29T01:43:24.708Z,78.65
2023-03-29T01:46:00.577Z,78.57
2023-03-29T01:48:33.058Z,78.72
2023-03-29T01:51:08.630Z,78.80
2023-03-29T01:53:42.217Z,78.82
2023-03-29T01:56:14.672Z,78.80
2023-03-29T01:58:48.496Z,79.02
2023-03-29T02:01:21.702Z,79.06
2023-03-29T02:03:54.775Z,79.10
2023-03-29T02:06:27.193Z,79.10
2023-03-29T02:08:57.497Z,78.92
2023-03-29T02:11:29.506Z,78.85
2023-03-29T02:14:01.922Z,78.86
2023-03-29T02:16:31.627Z,78.80
2023-03-29T02:19:01.724Z,78.53
2023-03-29T02:21:35.695Z,78.35
2023-03-29T02:24:10.086Z,78.31
2023-03-29T02:26:40.976Z,78.27
2023-03-29T02:29:13.414Z,78.25
2023-03-29T02:31:46.038Z,78.10
2023-03-29T02:34:20.974Z,77.98
2023-03-29T02:36:53.595Z,77.81
2023-03-29T02:39:25.478Z,77.89
2023-03-29T02:41:56.914Z,77.56
2023-03-29T02:44:31.938Z,77.49
2023-03-29T02:47:04.160Z,77.63
2023-03-29T02:49:33.860Z,77.29
2023-03-29T02:52:07.858Z,77.34
2023-03-29T02:54:43.143Z,77.14
2023-03-29T02:57:13.564Z,77.24
2023-03-29T02:59:46.075Z,77.04
2023-03-29T03:02:17.702Z,76.97
2023-03-29T03:04:47.570Z,77.04
2023-03-29T03:07:17.253Z,77.13
2023-03-29T03:09:47.800Z,77.08
2023-03-29T03:12:17.601Z,76.98
2023-03-29T03:14:50.016Z,76.75
2023-03-29T03:17:20.889Z,76.91
2023-03-29T03:19:50.759Z,76.91
2023-03-29T03:22:20.434Z,76.56
2023-03-29T03:24:50.110Z,76.57
2023-03-29T03:27:20.263Z,76.69
2023-03-29T03:29:52.600Z,76.51
2023-03-29T03:32:43.754Z,76.61
2023-03-29T03:35:51.924Z,76.40
2023-03-29T03:38:21.912Z,76.30
2023-03-29T03:40:58.294Z,76.21
2023-03-29T03:43:28.846Z,76.42
2023-03-29T03:46:02.253Z,76.21
2023-03-29T03:48:33.467Z,76.09
2023-03-29T03:51:29.495Z,75.94
2023-03-29T03:53:59.332Z,76.09
2023-03-29T03:56:34.727Z,75.88
2023-03-29T03:59:07.522Z,75.93
2023-03-29T04:01:48.189Z,75.85
2023-03-29T04:04:23.409Z,75.53
2023-03-29T04:07:22.608Z,75.49
2023-03-29T04:10:26.145Z,75.53
2023-03-29T04:13:05.184Z,75.29
2023-03-29T04:15:39.343Z,75.25
2023-03-29T04:18:15.225Z,75.23
2023-03-29T04:20:49.273Z,75.15
2023-03-29T04:23:22.197Z,75.09
2023-03-29T04:25:52.496Z,75.40
2023-03-29T04:28:40.646Z,75.39
2023-03-29T04:31:33.526Z,75.51
2023-03-29T04:34:25.370Z,75.86
2023-03-29T04:36:58.903Z,75.98
2023-03-29T04:39:32.184Z,76.01
2023-03-29T04:42:03.090Z,76.44
2023-03-29T04:44:35.255Z,76.28
2023-03-29T04:47:08.122Z,76.62
2023-03-29T04:49:54.088Z,76.91
2023-03-29T04:52:37.889Z,77.23
2023-03-29T04:55:10.170Z,77.63
2023-03-29T04:58:03.150Z,78.11
2023-03-29T05:00:40.069Z,78.38
2023-03-29T05:03:22.199Z,79.20
2023-03-29T05:06:10.437Z,79.56
2023-03-29T05:08:42.500Z,80.27
2023-03-29T05:11:29.399Z,80.38
2023-03-29T05:14:02.566Z,80.93
2023-03-29T05:16:35.827Z,81.02
2023-03-29T05:19:06.336Z,81.35
2023-03-29T05:21:43.706Z,81.70
2023-03-29T05:24:17.282Z,81.84
2023-03-29T05:26:47.788Z,81.88
2023-03-29T05:29:17.500Z,82.11
2023-03-29T05:31:52.697Z,81.99
2023-03-29T05:34:22.864Z,82.00
2023-03-29T05:37:01.648Z,82.30
2023-03-29T05:39:37.860Z,82.07
2023-03-29T05:42:11.045Z,82.19
2023-03-29T05:44:56.414Z,82.32
2023-03-29T05:47:29.315Z,82.14
2023-03-29T05:49:59.624Z,82.27
2023-03-29T05:52:32.401Z,82.22
2023-03-29T05:55:02.142Z,82.14
2023-03-29T05:57:31.911Z,82.38
2023-03-29T06:00:02.169Z,82.18
2023-03-29T06:02:42.515Z,82.09
2023-03-29T06:05:14.020Z,82.04
2023-03-29T06:08:00.945Z,81.96
2023-03-29T06:10:50.357Z,81.60
2023-03-29T06:13:37.385Z,81.40
2023-03-29T06:16:08.700Z,81.33
2023-03-29T06:18:40.392Z,81.18
2023-03-29T06:21:10.850Z,80.98
2023-03-29T06:23:43.943Z,80.78
2023-03-29T06:26:13.803Z,80.67
2023-03-29T06:28:43.504Z,80.50
2023-03-29T06:31:14.043Z,80.25
2023-03-29T06:33:43.850Z,80.21
2023-03-29T06:36:24.793Z,80.02
2023-03-29T06:38:57.429Z,80.09
2023-03-29T06:41:50.186Z,79.75
2023-03-29T06:44:57.317Z,79.67
2023-03-29T06:47:31.008Z,79.65
2023-03-29T06:50:01.218Z,79.50
2023-03-29T06:52:47.326Z,79.47
2023-03-29T06:55:20.812Z,79.45
2023-03-29T06:57:51.112Z,79.00
2023-03-29T07:00:28.260Z,78.97
2023-03-29T07:03:23.683Z,78.76
2023-03-29T07:06:01.403Z,78.35
2023-03-29T07:08:31.916Z,78.05
2023-03-29T07:11:10.404Z,78.03
2023-03-29T07:14:09.836Z,77.64
2023-03-29T07:16:39.743Z,77.43
2023-03-29T07:19:19.888Z,77.17
2023-03-29T07:21:58.813Z,76.93
2023-03-29T07:24:40.670Z,76.90
2023-03-29T07:27:13.081Z,76.83
2023-03-29T07:29:43.343Z,76.66
2023-03-29T07:32:13.280Z,76.51
2023-03-29T07:34:46.495Z,76.45
2023-03-29T07:37:30.705Z,76.24
2023-03-29T07:40:09.126Z,76.08
2023-03-29T07:42:48.964Z,75.83
2023-03-29T07:45:26.048Z,75.84
2023-03-29T07:48:03.541Z,75.63
2023-03-29T07:50:49.011Z,75.33
2023-03-29T07:53:21.871Z,75.26
2023-03-29T07:55:54.825Z,75.18
2023-03-29T07:58:53.136Z,75.14
2023-03-29T08:01:22.985Z,75.13
2023-03-29T08:04:11.528Z,75.19
2023-03-29T08:07:10.248Z,75.32
2023-03-29T08:09:57.533Z,75.38
2023-03-29T08:12:41.278Z,75.14
2023-03-29T08:15:14.225Z,74.95
2023-03-29T08:17:44.836Z,74.78
2023-03-29T08:20:17.869Z,74.61
2023-03-29T08:22:49.929Z,74.37
2023-03-29T08:25:31.275Z,74.36
2023-03-29T08:28:01.969Z,74.09
2023-03-29T08:30:43.094Z,74.03
2023-03-29T08:33:12.990Z,73.86
2023-03-29T08:35:43.565Z,73.79
2023-03-29T08:38:21.850Z,73.63
2023-03-29T08:40:52.705Z,73.46
2023-03-29T08:43:55.766Z,73.10
2023-03-29T08:46:43.904Z,72.83
2023-03-29T08:49:28.580Z,72.51
2023-03-29T08:52:00.628Z,71.93
2023-03-29T08:54:32.979Z,71.52
2023-03-29T08:57:15.691Z,71.40
2023-03-29T08:59:48.814Z,71.20
2023-03-29T09:02:26.449Z,71.01
2023-03-29T09:05:05.263Z,70.57
2023-03-29T09:07:44.534Z,70.62
2023-03-29T09:10:18.571Z,70.64
2023-03-29T09:13:02.106Z,70.47
2023-03-29T09:15:36.240Z,70.39
2023-03-29T09:18:32.317Z,70.30
2023-03-29T09:21:04.255Z,70.07
2023-03-29T09:23:58.266Z,69.58
2023-03-29T09:26:44.821Z,69.16
2023-03-29T09:29:55.241Z,68.89
2023-03-29T09:32:34.697Z,68.70
2023-03-29T09:35:18.832Z,68.35
2023-03-29T09:37:51.459Z,68.29
2023-03-29T09:40:24.883Z,67.99
2023-03-29T09:43:05.204Z,67.82
2023-03-29T09:45:35.702Z,67.39
2023-03-29T09:48:09.226Z,66.96
2023-03-29T09:50:44.072Z,66.43
2023-03-29T09:53:14.442Z,66.16
2023-03-29T09:55:49.812Z,65.97
2023-03-29T09:58:32.953Z,65.53
2023-03-29T10:01:04.904Z,65.09
2023-03-29T10:03:36.465Z,64.27
2023-03-29T10:06:16.003Z,64.02
2023-03-29T10:08:57.612Z,63.55
2023-03-29T10:11:32.996Z,63.39
2023-03-29T10:14:04.547Z,63.00
2023-03-29T10:16:38.190Z,63.30
2023-03-29T10:19:20.245Z,62.71
2023-03-29T10:21:54.026Z,62.48
2023-03-29T10:24:24.877Z,62.28
2023-03-29T10:26:57.462Z,61.34
2023-03-29T10:29:27.962Z,61.32
2023-03-29T10:31:58.240Z,61.44
2023-03-29T10:34:28.473Z,60.94
2023-03-29T10:37:02.456Z,60.40
2023-03-29T10:39:36.757Z,60.41
2023-03-29T10:42:08.571Z,60.40
2023-03-29T10:44:39.352Z,60.05
2023-03-29T10:47:16.926Z,59.52
2023-03-29T10:49:48.210Z,59.91
2023-03-29T10:52:21.494Z,59.94
2023-03-29T10:54:52.503Z,59.33
2023-03-29T10:57:28.111Z,59.01
2023-03-29T11:00:01.169Z,58.74
2023-03-29T11:02:47.993Z,58.07
2023-03-29T11:05:25.707Z,57.98
2023-03-29T11:08:27.239Z,57.29
2023-03-29T11:11:05.207Z,57.21
2023-03-29T11:13:41.294Z,57.22
2023-03-29T11:16:20.367Z,56.78
2023-03-29T11:19:23.174Z,56.17
2023-03-29T11:21:59.220Z,54.94
2023-03-29T11:24:41.140Z,54.92
2023-03-29T11:27:17.232Z,54.57
2023-03-29T11:29:54.065Z,54.59
2023-03-29T11:32:31.657Z,54.96
2023-03-29T11:35:09.401Z,55.18
2023-03-29T11:37:45.198Z,55.13
2023-03-29T11:40:36.163Z,54.70
2023-03-29T11:43:07.906Z,54.54
2023-03-29T11:45:40.662Z,54.59
2023-03-29T11:48:16.669Z,54.16
2023-03-29T11:50:51.384Z,53.84
2023-03-29T11:53:25.683Z,54.04
2023-03-29T11:55:58.553Z,53.78
2023-03-29T11:58:31.800Z,53.37
2023-03-29T12:01:04.489Z,53.33
2023-03-29T12:03:40.317Z,53.41
2023-03-29T12:06:16.003Z,53.68
2023-03-29T12:08:49.506Z,54.27
2023-03-29T12:11:27.480Z,54.26
2023-03-29T12:14:00.245Z,54.04
2023-03-29T12:16:35.075Z,54.00
2023-03-29T12:19:08.075Z,54.16
2023-03-29T12:21:38.577Z,54.23
2023-03-29T12:24:09.413Z,54.20
2023-03-29T12:26:52.935Z,54.23
2023-03-29T12:29:45.171Z,54.22
2023-03-29T12:32:50.967Z,54.24
2023-03-29T12:36:06.159Z,54.46
2023-03-29T12:38:59.161Z,54.82
2023-03-29T12:41:53.498Z,54.55
2023-03-29T12:44:44.890Z,55.08
2023-03-29T12:47:26.457Z,55.27
2023-03-29T12:49:59.037Z,55.03
2023-03-29T12:52:30.714Z,54.82
2023-03-29T12:55:02.997Z,54.95
2023-03-29T12:57:45.791Z,54.72
2023-03-29T13:00:30.432Z,54.44
2023-03-29T13:03:05.242Z,54.49
2023-03-29T13:05:38.281Z,54.02
2023-03-29T13:08:24.397Z,53.08
2023-03-29T13:10:56.581Z,53.56
2023-03-29T13:13:31.340Z,53.20
2023-03-29T13:16:13.509Z,52.85
2023-03-29T13:19:07.955Z,52.86
2023-03-29T13:21:40.433Z,52.93
2023-03-29T13:24:24.533Z,52.86
2023-03-29T13:27:01.469Z,52.42
2023-03-29T13:29:55.057Z,52.43
2023-03-29T13:32:42.769Z,52.55
2023-03-29T13:35:21.167Z,52.16
2023-03-29T13:37:58.742Z,52.54
2023-03-29T13:40:50.130Z,52.87
2023-03-29T13:43:25.529Z,52.81
2023-03-29T13:46:24.100Z,53.05
2023-03-29T13:48:58.191Z,53.57
2023-03-29T13:51:37.116Z,53.80
2023-03-29T13:54:16.082Z,53.87
2023-03-29T13:56:56.656Z,53.92
2023-03-29T13:59:31.466Z,53.99
2023-03-29T14:02:04.875Z,53.99
2023-03-29T14:04:37.997Z,54.06
2023-03-29T14:07:08.324Z,54.39
2023-03-29T14:09:44.281Z,54.58
2023-03-29T14:12:16.675Z,54.60
2023-03-29T14:14:58.745Z,54.60
2023-03-29T14:17:31.854Z,54.70
2023-03-29T14:20:08.249Z,54.79
2023-03-29T14:22:38.089Z,54.64
2023-03-29T14:25:14.848Z,54.08
2023-03-29T14:27:44.929Z,54.27
2023-03-29T14:30:24.298Z,54.27
2023-03-29T14:32:57.568Z,54.17
2023-03-29T14:35:34.425Z,54.30
2023-03-29T14:38:04.572Z,54.26
2023-03-29T14:40:35.204Z,54.30
2023-03-29T14:43:11.240Z,54.25
2023-03-29T14:45:41.131Z,54.30
2023-03-29T14:48:15.520Z,54.18
2023-03-29T14:50:45.820Z,54.13
2023-03-29T14:53:21.143Z,54.07
2023-03-29T14:55:54.516Z,53.81
2023-03-29T14:58:25.947Z,53.98
2023-03-29T15:00:55.895Z,53.99
2023-03-29T15:03:29.479Z,54.41
2023-03-29T15:06:02.669Z,54.23
2023-03-29T15:08:35.333Z,54.51
2023-03-29T15:11:06.852Z,54.23
2023-03-29T15:13:36.603Z,54.60
2023-03-29T15:16:08.269Z,54.45
2023-03-29T15:18:41.821Z,54.63
2023-03-29T15:21:13.294Z,54.54
2023-03-29T15:23:49.570Z,54.46
2023-03-29T15:26:26.427Z,54.92
2023-03-29T15:29:00.718Z,55.03
2023-03-29T15:31:37.113Z,55.21
2023-03-29T15:34:11.266Z,55.24
2023-03-29T15:36:43.305Z,55.65
2023-03-29T15:39:15.528Z,55.71
2023-03-29T15:41:45.910Z,55.86
2023-03-29T15:44:18.539Z,55.83
2023-03-29T15:46:48.390Z,56.20
2023-03-29T15:49:20.798Z,56.63
2023-03-29T15:51:50.496Z,56.42
2023-03-29T15:54:20.187Z,56.73
2023-03-29T15:56:53.622Z,56.45
2023-03-29T15:59:23.396Z,56.90
2023-03-29T16:01:54.672Z,56.78
2023-03-29T16:04:27.143Z,57.08
2023-03-29T16:06:57.921Z,56.90
2023-03-29T16:09:28.211Z,57.22
2023-03-29T16:12:00.465Z,57.56
2023-03-29T16:14:31.872Z,57.32
2023-03-29T16:17:03.280Z,57.69
2023-03-29T16:19:36.562Z,57.88
2023-03-29T16:22:07.649Z,58.56
2023-03-29T16:24:38.107Z,58.60
2023-03-29T16:27:08.107Z,58.87
2023-03-29T16:29:37.857Z,59.28
2023-03-29T16:32:07.859Z,59.49
2023-03-29T16:34:43.436Z,59.27
2023-03-29T16:37:13.616Z,59.46
2023-03-29T16:39:43.603Z,59.52
2023-03-29T16:42:14.257Z,59.40
2023-03-29T16:44:44.673Z,59.29
2023-03-29T16:47:14.919Z,59.03
2023-03-29T16:49:48.720Z,59.48
2023-03-29T16:52:18.395Z,59.35
2023-03-29T16:54:48.159Z,59.02
2023-03-29T16:57:17.894Z,59.33
2023-03-29T16:59:47.902Z,59.37
2023-03-29T17:02:17.587Z,59.48
2023-03-29T17:04:49.999Z,59.65
2023-03-29T17:07:20.052Z,59.54
2023-03-29T17:09:49.740Z,59.87
2023-03-29T17:12:21.254Z,59.80
2023-03-29T17:14:51.264Z,60.18
2023-03-29T17:17:21.857Z,60.12
2023-03-29T17:19:54.104Z,60.71
2023-03-29T17:22:23.766Z,60.50
2023-03-29T17:24:53.420Z,61.00
2023-03-29T17:27:23.210Z,61.33
2023-03-29T17:29:52.907Z,61.29
2023-03-29T17:32:22.594Z,61.70
2023-03-29T17:34:54.895Z,62.21
2023-03-29T17:37:24.636Z,62.31
2023-03-29T17:39:54.407Z,62.77
2023-03-29T17:42:24.141Z,62.88
2023-03-29T17:44:53.872Z,63.30
2023-03-29T17:47:23.560Z,63.66
2023-03-29T17:49:56.021Z,64.09
2023-03-29T17:52:26.353Z,64.13
2023-03-29T17:54:56.179Z,64.52
2023-03-29T17:57:26.649Z,64.99
2023-03-29T17:59:56.644Z,65.42
2023-03-29T18:02:27.277Z,65.68
2023-03-29T18:05:01.747Z,66.26
2023-03-29T18:07:31.626Z,66.74
2023-03-29T18:10:01.508Z,67.44
2023-03-29T18:12:31.960Z,67.56
2023-03-29T18:15:01.738Z,67.92
2023-03-29T18:17:31.605Z,68.38
2023-03-29T18:20:09.203Z,68.98
2023-03-29T18:22:39.300Z,69.27
2023-03-29T18:25:11.308Z,69.67
2023-03-29T18:27:41.486Z,70.14
2023-03-29T18:30:13.956Z,70.49
2023-03-29T18:32:43.756Z,70.84
2023-03-29T18:35:16.137Z,71.27
2023-03-29T18:37:45.831Z,71.82
2023-03-29T18:40:19.965Z,72.04
2023-03-29T18:42:49.623Z,72.27
2023-03-29T18:45:19.456Z,72.59
2023-03-29T18:47:50.651Z,73.06
2023-03-29T18:50:23.292Z,73.35
2023-03-29T18:52:53.142Z,73.47
2023-03-29T18:55:22.812Z,73.65
2023-03-29T18:57:52.562Z,73.93
2023-03-29T19:00:22.464Z,74.31
2023-03-29T19:02:52.262Z,74.60
2023-03-29T19:05:24.631Z,74.66
2023-03-29T19:07:54.335Z,75.00
2023-03-29T19:10:24.826Z,74.98
2023-03-29T19:12:54.614Z,75.47
2023-03-29T19:15:24.443Z,75.62
2023-03-29T19:17:54.363Z,75.60
2023-03-29T19:20:26.789Z,75.62
2023-03-29T19:22:56.636Z,75.72
2023-03-29T19:25:26.332Z,75.89
2023-03-29T19:27:56.064Z,76.05
2023-03-29T19:30:26.012Z,76.11
2023-03-29T19:32:55.780Z,76.27
2023-03-29T19:35:28.246Z,76.31
2023-03-29T19:37:57.987Z,76.50
2023-03-29T19:40:27.759Z,76.50
2023-03-29T19:42:57.468Z,76.56
2023-03-29T19:45:27.961Z,76.79
2023-03-29T19:47:57.825Z,76.89
2023-03-29T19:50:31.706Z,76.61
2023-03-29T19:53:01.784Z,76.72
2023-03-29T19:55:31.566Z,76.64
2023-03-29T19:58:01.244Z,76.97
2023-03-29T20:00:30.937Z,77.08
2023-03-29T20:03:02.053Z,77.15
2023-03-29T20:05:34.369Z,77.43
2023-03-29T20:08:04.093Z,77.17
2023-03-29T20:10:33.782Z,77.54
2023-03-29T20:13:03.516Z,77.72
2023-03-29T20:15:33.219Z,77.76
2023-03-29T20:18:03.621Z,77.92
2023-03-29T20:20:35.946Z,78.04
2023-03-29T20:23:05.773Z,78.00
2023-03-29T20:25:35.770Z,78.19
2023-03-29T20:28:06.661Z,78.20
2023-03-29T20:30:36.902Z,78.29
2023-03-29T20:33:07.586Z,78.41
2023-03-29T20:35:39.944Z,78.35
2023-03-29T20:38:10.374Z,78.47
2023-03-29T20:40:40.961Z,78.64
2023-03-29T20:43:13.433Z,78.68
2023-03-29T20:45:52.701Z,78.79
2023-03-29T20:48:24.414Z,79.04
2023-03-29T20:50:57.788Z,79.25
2023-03-29T20:53:34.835Z,79.19
2023-03-29T20:56:06.534Z,79.23
2023-03-29T20:58:36.215Z,79.16
2023-03-29T21:01:06.169Z,79.35
2023-03-29T21:03:36.338Z,79.52
2023-03-29T21:06:09.618Z,79.32
2023-03-29T21:08:39.315Z,79.28
2023-03-29T21:11:10.054Z,79.24
2023-03-29T21:13:39.955Z,79.32
2023-03-29T21:16:10.889Z,79.09
2023-03-29T21:18:41.730Z,79.14
2023-03-29T21:21:14.885Z,79.14
2023-03-29T21:23:44.567Z,79.00
2023-03-29T21:26:14.248Z,78.84
2023-03-29T21:28:43.959Z,78.81
2023-03-29T21:31:13.679Z,79.02
2023-03-29T21:33:43.396Z,78.68
2023-03-29T21:36:15.686Z,78.60
2023-03-29T21:38:45.578Z,78.58
2023-03-29T21:41:15.569Z,78.53
2023-03-29T21:43:45.281Z,78.28
2023-03-29T21:46:15.693Z,77.86
2023-03-29T21:48:45.468Z,77.70
2023-03-29T21:51:17.753Z,77.43
2023-03-29T21:53:47.418Z,77.23
2023-03-29T21:56:17.676Z,77.22
2023-03-29T21:58:47.393Z,77.26
2023-03-29T22:01:17.135Z,76.96
2023-03-29T22:03:47.641Z,76.77
2023-03-29T22:06:19.910Z,76.86
2023-03-29T22:08:53.130Z,76.98
2023-03-29T22:11:23.310Z,76.81
2023-03-29T22:13:54.737Z,76.95
2023-03-29T22:16:26.033Z,77.09
2023-03-29T22:18:55.856Z,76.92
2023-03-29T22:21:31.314Z,76.92
2023-03-29T22:24:02.340Z,76.90
2023-03-29T22:26:34.232Z,76.75
2023-03-29T22:29:04.293Z,76.69
2023-03-29T22:31:34.539Z,76.48
2023-03-29T22:34:04.259Z,76.30
2023-03-29T22:36:36.967Z,76.07
2023-03-29T22:39:07.260Z,76.19
2023-03-29T22:41:36.914Z,76.05
2023-03-29T22:44:06.724Z,75.73
2023-03-29T22:46:36.746Z,75.69
2023-03-29T22:49:07.283Z,75.68
2023-03-29T22:51:39.530Z,75.49
2023-03-29T22:54:09.288Z,75.34
2023-03-29T22:56:39.120Z,75.47
2023-03-29T22:59:08.859Z,75.22
2023-03-29T23:01:38.584Z,75.12
2023-03-29T23:04:08.590Z,75.07
2023-03-29T23:06:41.033Z,74.92
2023-03-29T23:09:10.760Z,74.79
2023-03-29T23:11:40.469Z,74.69
2023-03-29T23:14:10.168Z,74.76
2023-03-29T23:16:40.251Z,74.71
2023-03-29T23:19:09.928Z,74.83
2023-03-29T23:21:42.285Z,75.10
2023-03-29T23:24:12.012Z,74.99
2023-03-29T23:26:41.668Z,75.30
2023-03-29T23:29:11.353Z,75.26
2023-03-29T23:31:41.922Z,75.17
2023-03-29T23:34:13.580Z,75.07
2023-03-29T23:36:45.819Z,74.85
2023-03-29T23:39:16.212Z,74.92
2023-03-29T23:41:45.907Z,74.78
2023-03-29T23:44:15.581Z,75.00
2023-03-29T23:46:45.380Z,75.10
2023-03-29T23:49:15.127Z,74.69
2023-03-29T23:51:48.420Z,74.62
2023-03-29T23:54:18.117Z,74.41
2023-03-29T23:56:47.820Z,74.23
2023-03-29T23:59:17.511Z,74.24
